createdAt,value
2018-11-04T03:14:20.847Z,11.01
2018-11-04T03:15:20.818Z,11.02
2018-11-04T03:16:20.806Z,11.03
2018-11-04T03:17:20.789Z,10.99
2018-11-04T03:18:20.783Z,11.03
2018-11-04T03:19:20.761Z,11.10
2018-11-04T03:20:20.763Z,11.11
2018-11-04T03:21:20.738Z,11.10
2018-11-04T03:22:20.730Z,11.07
2018-11-04T03:23:20.752Z,11.11
2018-11-04T03:24:20.722Z,11.07
2018-11-04T03:25:20.742Z,11.13
2018-11-04T03:26:20.752Z,11.07
2018-11-04T03:27:20.744Z,11.02
2018-11-04T03:28:20.698Z,11.03
2018-11-04T03:29:20.704Z,11.01
2018-11-04T03:30:20.698Z,11.01
2018-11-04T03:31:20.677Z,11.03
2018-11-04T03:32:20.667Z,11.06
2018-11-04T03:33:20.663Z,11.02
2018-11-04T03:34:20.652Z,10.99
2018-11-04T03:35:20.652Z,11.02
2018-11-04T03:36:20.658Z,11.09
2018-11-04T03:37:20.636Z,11.11
2018-11-04T03:38:20.646Z,11.03
2018-11-04T03:39:20.669Z,11.01
2018-11-04T03:40:20.632Z,11.03
2018-11-04T03:41:20.626Z,11.02
2018-11-04T03:42:20.610Z,11.02
2018-11-04T03:43:20.626Z,11.02
2018-11-04T03:44:20.618Z,11.03
2018-11-04T03:45:20.601Z,11.14
2018-11-04T03:46:20.604Z,11.03
2018-11-04T03:47:20.591Z,11.09
2018-11-04T03:48:20.608Z,11.11
2018-11-04T03:49:20.579Z,11.17
2018-11-04T03:50:20.606Z,11.03
2018-11-04T03:51:20.569Z,11.16
2018-11-04T03:52:20.562Z,11.14
2018-11-04T03:53:20.562Z,11.21
2018-11-04T03:54:20.554Z,11.25
2018-11-04T03:55:20.552Z,11.20
2018-11-04T03:56:20.538Z,11.16
2018-11-04T03:57:20.568Z,11.27
2018-11-04T03:58:20.543Z,11.16
2018-11-04T03:59:20.528Z,11.20
2018-11-04T04:00:20.517Z,11.24
2018-11-04T04:01:20.519Z,11.16
2018-11-04T04:02:20.509Z,11.13
2018-11-04T04:03:20.509Z,11.10
2018-11-04T04:04:20.504Z,11.20
2018-11-04T04:05:20.506Z,11.16
2018-11-04T04:06:20.493Z,11.20
2018-11-04T04:07:20.505Z,11.19
2018-11-04T04:08:20.495Z,11.20
2018-11-04T04:09:20.476Z,11.25
2018-11-04T04:10:20.480Z,11.11
2018-11-04T04:11:20.469Z,11.10
2018-11-04T04:12:20.479Z,11.07
2018-11-04T04:13:20.463Z,11.09
2018-11-04T04:14:20.450Z,11.13
2018-11-04T04:15:20.475Z,11.13
2018-11-04T04:16:20.472Z,11.07
2018-11-04T04:17:20.472Z,11.09
2018-11-04T04:18:20.449Z,11.07
2018-11-04T04:19:20.433Z,11.10
2018-11-04T04:20:20.428Z,11.03
2018-11-04T04:21:20.422Z,11.19
2018-11-04T04:22:20.417Z,11.19
2018-11-04T04:23:20.418Z,11.17
2018-11-04T04:24:29.661Z,11.14
2018-11-04T04:26:22.896Z,11.10
2018-11-04T04:27:13.818Z,11.03
2018-11-04T04:28:13.779Z,10.98
2018-11-04T04:29:23.441Z,10.98
2018-11-04T04:31:07.175Z,11.07
